createdAt,value
2018-05-29T00:00:00.732Z,101870.96
2018-05-29T00:02:28.364Z,101875.20
2018-05-29T00:04:56.430Z,101878.91
2018-05-29T00:07:24.883Z,101879.84
2018-05-29T00:09:53.951Z,101874.45
2018-05-29T00:12:22.022Z,101873.11
2018-05-29T00:14:50.156Z,101871.57
2018-05-29T00:17:18.560Z,101873.11
2018-05-29T00:19:46.471Z,101862.14
2018-05-29T00:22:14.079Z,101860.88
2018-05-29T00:24:42.669Z,101859.21
2018-05-29T00:27:10.741Z,101863.77
2018-05-29T00:29:38.456Z,101865.02
2018-05-29T00:32:06.047Z,101858.53
2018-05-29T00:34:33.625Z,101852.91
2018-05-29T00:37:01.967Z,101850.83
2018-05-29T00:39:29.568Z,101846.78
2018-05-29T00:41:57.145Z,101842.19
2018-05-29T00:44:25.022Z,101835.09
2018-05-29T00:46:52.744Z,101834.11
2018-05-29T00:49:20.339Z,101833.52
2018-05-29T00:51:48.411Z,101833.06
2018-05-29T00:54:16.660Z,101830.23
2018-05-29T00:56:44.896Z,101830.46
2018-05-29T00:59:12.472Z,101833.25
2018-05-29T01:01:40.031Z,101840.22
2018-05-29T01:04:07.618Z,101843.20
2018-05-29T01:06:35.611Z,101840.81
2018-05-29T01:09:03.528Z,101844.53
2018-05-29T01:11:31.735Z,101841.42
2018-05-29T01:13:59.845Z,101838.08
2018-05-29T01:16:28.139Z,101837.56
2018-05-29T01:18:56.279Z,101835.25
2018-05-29T01:21:24.090Z,101839.80
2018-05-29T01:23:51.722Z,101839.41
2018-05-29T01:26:20.237Z,101834.94
2018-05-29T01:28:47.998Z,101832.43
2018-05-29T01:31:16.660Z,101826.81
2018-05-29T01:33:44.954Z,101834.85
2018-05-29T01:36:12.514Z,101836.98
2018-05-29T01:38:40.593Z,101830.63
2018-05-29T01:41:08.135Z,101829.97
2018-05-29T01:43:35.696Z,101830.16
2018-05-29T01:46:03.323Z,101834.15
2018-05-29T01:48:30.879Z,101834.64
2018-05-29T01:51:00.308Z,101836.97
2018-05-29T01:53:28.686Z,101844.34
2018-05-29T01:55:56.227Z,101838.39
2018-05-29T01:58:24.473Z,101843.95
2018-05-29T02:00:52.158Z,101840.52
2018-05-29T02:03:19.728Z,101838.52
2018-05-29T02:05:48.517Z,101836.02
2018-05-29T02:08:16.247Z,101838.18
2018-05-29T02:10:44.310Z,101837.02
2018-05-29T02:13:12.447Z,101833.16
2018-05-29T02:15:40.840Z,101833.77
2018-05-29T02:18:08.403Z,101833.95
2018-05-29T02:25:04.010Z,101830.98
2018-05-29T02:27:32.359Z,101824.44
2018-05-29T02:29:59.925Z,101827.20
2018-05-29T02:32:28.012Z,101822.00
2018-05-29T02:34:55.564Z,101823.11
2018-05-29T02:37:23.645Z,101823.30
2018-05-29T02:39:51.183Z,101820.09
2018-05-29T02:42:18.765Z,101820.84
2018-05-29T02:44:46.856Z,101817.13
2018-05-29T02:47:14.608Z,101817.45
2018-05-29T02:49:42.156Z,101822.74
2018-05-29T02:52:10.430Z,101819.27
2018-05-29T02:54:37.987Z,101819.52
2018-05-29T02:57:05.536Z,101815.45
2018-05-29T02:59:33.607Z,101817.26
2018-05-29T03:02:01.168Z,101816.16
2018-05-29T03:04:28.755Z,101815.38
2018-05-29T03:06:57.076Z,101809.44
2018-05-29T03:09:25.506Z,101809.69
2018-05-29T03:11:53.703Z,101811.45
2018-05-29T03:14:21.312Z,101805.74
2018-05-29T03:16:49.480Z,101804.17
2018-05-29T03:19:17.632Z,101809.59
2018-05-29T03:21:45.280Z,101800.00
2018-05-29T03:24:13.930Z,101795.53
2018-05-29T03:26:41.939Z,101795.31
2018-05-29T03:29:09.524Z,101789.22
2018-05-29T03:31:37.874Z,101788.52
2018-05-29T03:34:06.120Z,101782.98
2018-05-29T03:36:33.845Z,101786.37
2018-05-29T03:39:02.233Z,101784.31
2018-05-29T03:41:29.838Z,101775.89
2018-05-29T03:43:57.422Z,101773.45
2018-05-29T03:46:25.014Z,101773.23
2018-05-29T03:48:54.433Z,101787.27
2018-05-29T03:51:22.624Z,101786.50
2018-05-29T03:53:50.901Z,101786.78
2018-05-29T03:56:18.483Z,101784.15
2018-05-29T03:58:46.825Z,101791.12
2018-05-29T04:01:14.399Z,101796.77
2018-05-29T04:03:42.221Z,101785.70
2018-05-29T04:06:10.877Z,101788.62
2018-05-29T04:08:39.217Z,101784.39
2018-05-29T04:11:07.404Z,101793.52
2018-05-29T04:13:35.196Z,101793.25
2018-05-29T04:16:03.374Z,101790.65
2018-05-29T04:18:31.607Z,101790.73
2018-05-29T04:20:59.176Z,101784.06
2018-05-29T04:23:26.793Z,101778.84
2018-05-29T04:25:55.830Z,101774.33
2018-05-29T04:28:23.748Z,101776.30
2018-05-29T04:30:51.486Z,101775.34
2018-05-29T04:33:19.743Z,101772.64
2018-05-29T04:35:47.862Z,101778.95
2018-05-29T04:38:18.507Z,101776.73
2018-05-29T04:40:46.555Z,101777.73
2018-05-29T04:43:14.241Z,101771.51
2018-05-29T04:45:42.328Z,101773.25
2018-05-29T04:48:10.567Z,101772.56
2018-05-29T04:50:38.871Z,101774.30
2018-05-29T04:53:07.036Z,101775.05
2018-05-29T04:55:34.605Z,101773.25
2018-05-29T04:58:02.187Z,101773.08
2018-05-29T05:00:30.599Z,101771.17
2018-05-29T05:02:58.224Z,101767.88
2018-05-29T05:05:26.941Z,101778.19
2018-05-29T05:07:54.814Z,101773.06
2018-05-29T05:10:23.540Z,101774.55
2018-05-29T05:12:51.775Z,101777.35
2018-05-29T05:15:19.970Z,101768.41
2018-05-29T05:17:48.523Z,101774.74
2018-05-29T05:20:17.085Z,101776.13
2018-05-29T05:22:46.652Z,101774.98
2018-05-29T05:25:15.530Z,101773.78
2018-05-29T05:27:43.174Z,101764.27
2018-05-29T05:30:10.881Z,101755.89
2018-05-29T05:32:40.385Z,101762.34
2018-05-29T05:35:08.358Z,101768.30
2018-05-29T05:37:36.666Z,101767.67
2018-05-29T05:40:04.254Z,101768.92
2018-05-29T05:42:32.298Z,101778.12
2018-05-29T05:45:00.666Z,101770.48
2018-05-29T05:47:28.432Z,101775.67
2018-05-29T05:49:56.136Z,101778.02
2018-05-29T05:52:24.950Z,101774.55
2018-05-29T05:54:52.573Z,101767.26
2018-05-29T05:57:20.152Z,101772.06
2018-05-29T05:59:48.588Z,101772.41
2018-05-29T06:02:16.408Z,101769.23
2018-05-29T06:04:43.963Z,101768.16
2018-05-29T06:07:12.525Z,101756.66
2018-05-29T06:09:41.005Z,101756.19
2018-05-29T06:12:09.132Z,101752.94
2018-05-29T06:14:37.562Z,101753.95
2018-05-29T06:17:05.136Z,101751.05
2018-05-29T06:19:32.719Z,101743.72
2018-05-29T06:22:00.343Z,101748.25
2018-05-29T06:24:29.941Z,101750.35
2018-05-29T06:26:58.240Z,101744.78
2018-05-29T06:29:26.469Z,101748.12
2018-05-29T06:31:54.160Z,101745.27
2018-05-29T06:34:22.358Z,101749.78
2018-05-29T06:36:50.595Z,101748.83
2018-05-29T06:39:18.179Z,101752.86
2018-05-29T06:41:46.701Z,101747.44
2018-05-29T06:44:14.266Z,101751.53
2018-05-29T06:46:41.830Z,101750.19
2018-05-29T06:49:09.385Z,101754.85
2018-05-29T06:51:37.416Z,101751.22
2018-05-29T06:54:05.016Z,101758.41
2018-05-29T06:56:32.580Z,101756.17
2018-05-29T06:59:00.870Z,101756.16
2018-05-29T07:01:28.442Z,101755.89
2018-05-29T07:03:55.992Z,101763.01
2018-05-29T07:06:25.174Z,101759.47
2018-05-29T07:08:52.907Z,101751.41
2018-05-29T07:11:20.850Z,101751.07
2018-05-29T07:13:48.536Z,101749.79
2018-05-29T07:16:16.960Z,101742.55
2018-05-29T07:18:44.522Z,101741.63
2018-05-29T07:21:12.058Z,101747.61
2018-05-29T07:23:39.675Z,101746.33
2018-05-29T07:26:08.065Z,101745.31
2018-05-29T07:28:35.691Z,101750.86
2018-05-29T07:31:03.269Z,101749.73
2018-05-29T07:33:31.505Z,101740.17
2018-05-29T07:35:59.079Z,101739.58
2018-05-29T07:38:27.160Z,101744.83
2018-05-29T07:40:55.375Z,101746.45
2018-05-29T07:43:23.118Z,101744.12
2018-05-29T07:45:50.660Z,101742.50
2018-05-29T07:48:18.241Z,101742.66
2018-05-29T07:50:47.364Z,101741.81
2018-05-29T07:53:15.600Z,101737.13
2018-05-29T07:55:43.279Z,101741.06
2018-05-29T07:58:10.872Z,101746.54
2018-05-29T08:00:39.321Z,101744.27
2018-05-29T08:03:06.914Z,101738.42
2018-05-29T08:05:35.425Z,101732.83
2018-05-29T08:08:03.032Z,101733.67
2018-05-29T08:10:31.385Z,101736.44
2018-05-29T08:12:58.958Z,101723.86
2018-05-29T08:15:27.066Z,101723.42
2018-05-29T08:17:54.628Z,101720.30
2018-05-29T08:20:22.372Z,101716.87
2018-05-29T08:22:49.958Z,101716.94
2018-05-29T08:25:18.820Z,101717.61
2018-05-29T08:27:46.740Z,101716.10
2018-05-29T08:30:14.299Z,101702.34
2018-05-29T08:32:42.423Z,101698.36
2018-05-29T08:35:09.983Z,101695.53
2018-05-29T08:37:38.009Z,101694.91
2018-05-29T08:40:05.574Z,101694.83
2018-05-29T08:42:33.156Z,101700.32
2018-05-29T08:45:00.717Z,101690.38
2018-05-29T08:47:28.274Z,101690.95
2018-05-29T08:49:55.827Z,101691.92
2018-05-29T08:52:24.416Z,101687.70
2018-05-29T08:54:51.952Z,101689.63
2018-05-29T08:57:19.508Z,101686.18
2018-05-29T08:59:47.981Z,101689.36
2018-05-29T09:02:15.567Z,101690.59
2018-05-29T09:04:43.149Z,101682.20
2018-05-29T09:07:11.275Z,101683.30
2018-05-29T09:09:39.395Z,101680.00
2018-05-29T09:12:06.939Z,101674.29
2018-05-29T09:14:35.272Z,101668.06
2018-05-29T09:17:02.881Z,101668.34
2018-05-29T09:19:30.561Z,101669.41
2018-05-29T09:21:58.128Z,101669.80
2018-05-29T09:24:26.286Z,101667.04
2018-05-29T09:26:54.611Z,101663.73
2018-05-29T09:29:22.329Z,101660.10
2018-05-29T09:31:50.045Z,101655.36
2018-05-29T09:34:18.126Z,101647.67
2018-05-29T09:36:46.625Z,101649.55
2018-05-29T09:39:14.178Z,101648.56
2018-05-29T09:41:41.972Z,101641.77
2018-05-29T09:44:09.610Z,101642.57
2018-05-29T09:46:37.521Z,101651.77
2018-05-29T09:49:05.164Z,101648.55
2018-05-29T09:51:33.448Z,101644.55
2018-05-29T09:54:00.997Z,101644.14
2018-05-29T09:56:28.584Z,101643.41
2018-05-29T09:58:56.860Z,101639.23
2018-05-29T10:01:24.631Z,101641.17
2018-05-29T10:03:52.342Z,101635.41
2018-05-29T10:06:20.669Z,101639.14
2018-05-29T10:08:48.325Z,101634.72
2018-05-29T10:11:16.849Z,101632.33
2018-05-29T10:13:44.420Z,101638.88
2018-05-29T10:16:12.497Z,101637.89
2018-05-29T10:18:40.050Z,101635.94
2018-05-29T10:21:07.720Z,101624.07
2018-05-29T10:23:35.308Z,101623.91
2018-05-29T10:26:03.441Z,101622.62
2018-05-29T10:28:37.054Z,101620.09
2018-05-29T10:31:04.837Z,101618.44
2018-05-29T10:33:32.974Z,101616.73
2018-05-29T10:36:00.571Z,101609.86
2018-05-29T10:38:28.999Z,101617.73
2018-05-29T10:40:56.715Z,101614.51
2018-05-29T10:43:24.333Z,101611.60
2018-05-29T10:45:51.887Z,101607.50
2018-05-29T10:48:19.547Z,101598.62
2018-05-29T10:50:48.748Z,101600.97
2018-05-29T10:53:17.525Z,101594.69
2018-05-29T10:55:45.096Z,101600.55
2018-05-29T10:58:12.648Z,101603.53
2018-05-29T11:00:40.879Z,101596.59
2018-05-29T11:03:08.417Z,101598.09
2018-05-29T11:05:36.888Z,101595.36
2018-05-29T11:08:04.483Z,101597.55
2018-05-29T11:10:32.615Z,101592.65
2018-05-29T11:13:00.164Z,101589.70
2018-05-29T11:15:28.369Z,101592.37
2018-05-29T11:17:55.932Z,101586.66
2018-05-29T11:20:23.765Z,101587.66
2018-05-29T11:22:51.447Z,101586.19
2018-05-29T11:25:19.623Z,101581.84
2018-05-29T11:27:47.923Z,101582.31
2018-05-29T11:30:16.351Z,101582.75
2018-05-29T11:32:44.777Z,101587.88
2018-05-29T11:35:12.406Z,101576.63
2018-05-29T11:37:40.497Z,101575.12
2018-05-29T11:40:08.074Z,101572.48
2018-05-29T11:42:36.455Z,101563.62
2018-05-29T11:45:04.049Z,101567.53
2018-05-29T11:47:31.619Z,101570.29
2018-05-29T11:49:59.219Z,101563.54
2018-05-29T11:52:27.655Z,101562.30
2018-05-29T11:54:55.291Z,101566.31
2018-05-29T11:57:23.104Z,101561.27
2018-05-29T11:59:51.136Z,101554.33
2018-05-29T12:02:18.711Z,101553.48
2018-05-29T12:04:46.768Z,101551.93
2018-05-29T12:07:14.979Z,101547.70
2018-05-29T12:09:43.039Z,101542.03
2018-05-29T12:12:22.528Z,101542.19
2018-05-29T12:14:50.961Z,101537.75
2018-05-29T12:17:18.529Z,101540.11
2018-05-29T12:19:46.636Z,101537.16
2018-05-29T12:22:14.262Z,101535.72
2018-05-29T12:24:42.534Z,101520.91
2018-05-29T12:27:10.766Z,101517.27
2018-05-29T12:29:38.327Z,101517.27
2018-05-29T12:32:06.477Z,101519.72
2018-05-29T12:34:34.407Z,101507.67
2018-05-29T12:37:02.736Z,101513.03
2018-05-29T12:39:30.611Z,101514.42
2018-05-29T12:41:58.176Z,101506.40
2018-05-29T12:44:25.802Z,101508.75
2018-05-29T12:46:53.589Z,101516.47
2018-05-29T12:49:21.149Z,101508.69
2018-05-29T12:51:49.344Z,101508.50
2018-05-29T12:54:17.321Z,101512.52
2018-05-29T12:56:44.879Z,101508.69
2018-05-29T12:59:13.139Z,101509.43
2018-05-29T13:01:40.723Z,101501.14
2018-05-29T13:04:08.380Z,101509.50
2018-05-29T13:06:36.240Z,101506.73
2018-05-29T13:09:04.527Z,101497.91
2018-05-29T13:11:32.645Z,101502.05
2018-05-29T13:14:00.207Z,101496.41
2018-05-29T13:16:28.321Z,101487.98
2018-05-29T13:18:56.112Z,101489.00
2018-05-29T13:21:23.844Z,101491.50
2018-05-29T13:23:52.095Z,101490.78
2018-05-29T13:26:20.359Z,101481.86
2018-05-29T13:28:47.916Z,101481.91
2018-05-29T13:31:15.671Z,101480.56
2018-05-29T13:33:43.824Z,101475.39
2018-05-29T13:36:11.555Z,101480.23
2018-05-29T13:38:39.635Z,101476.02
2018-05-29T13:41:07.359Z,101466.47
2018-05-29T13:43:34.928Z,101471.16
2018-05-29T13:46:02.712Z,101453.85
2018-05-29T13:48:30.271Z,101459.59
2018-05-29T13:50:58.655Z,101463.36
2018-05-29T13:53:26.792Z,101463.81
2018-05-29T13:55:54.838Z,101461.92
2018-05-29T13:58:23.149Z,101458.29
2018-05-29T14:00:51.144Z,101447.31
2018-05-29T14:03:18.732Z,101445.56
2018-05-29T14:05:46.987Z,101449.86
2018-05-29T14:08:14.596Z,101446.08
2018-05-29T14:10:42.641Z,101450.11
2018-05-29T14:13:10.585Z,101431.41
2018-05-29T14:15:38.985Z,101437.56
2018-05-29T14:18:06.759Z,101436.44
2018-05-29T14:20:34.305Z,101435.77
2018-05-29T14:23:02.808Z,101430.94
2018-05-29T14:25:31.347Z,101423.13
2018-05-29T14:27:58.945Z,101420.46
2018-05-29T14:30:26.532Z,101429.38
2018-05-29T14:32:54.719Z,101428.16
2018-05-29T14:35:22.404Z,101417.83
2018-05-29T14:37:50.284Z,101413.52
2018-05-29T14:40:19.030Z,101413.14
2018-05-29T14:42:46.922Z,101406.01
2018-05-29T14:45:14.579Z,101396.28
2018-05-29T14:47:42.142Z,101411.92
2018-05-29T14:50:09.748Z,101408.67
2018-05-29T14:52:38.478Z,101405.79
2018-05-29T14:55:06.025Z,101400.69
2018-05-29T14:57:33.692Z,101398.84
2018-05-29T15:00:02.116Z,101399.12
2018-05-29T15:02:29.700Z,101399.52
2018-05-29T15:04:57.978Z,101397.55
2018-05-29T15:07:25.543Z,101390.63
2018-05-29T15:09:53.700Z,101391.17
2018-05-29T15:12:21.267Z,101378.92
2018-05-29T15:14:49.262Z,101378.39
2018-05-29T15:17:16.865Z,101378.36
2018-05-29T15:19:45.170Z,101370.25
2018-05-29T15:22:12.768Z,101378.18
2018-05-29T15:24:40.829Z,101370.47
2018-05-29T15:27:08.952Z,101375.77
2018-05-29T15:29:36.843Z,101372.89
2018-05-29T15:32:05.192Z,101368.91
2018-05-29T15:34:32.751Z,101360.20
2018-05-29T15:37:00.731Z,101361.81
2018-05-29T15:39:28.268Z,101358.65
2018-05-29T15:41:55.799Z,101354.08
2018-05-29T15:44:23.662Z,101359.20
2018-05-29T15:46:51.219Z,101358.39
2018-05-29T15:49:18.756Z,101351.41
2018-05-29T15:51:47.392Z,101345.97
2018-05-29T15:54:14.931Z,101344.30
2018-05-29T15:56:42.485Z,101338.55
2018-05-29T15:59:10.786Z,101336.66
2018-05-29T16:01:38.426Z,101332.80
2018-05-29T16:04:05.972Z,101332.30
2018-05-29T16:06:34.030Z,101331.43
2018-05-29T16:09:01.578Z,101338.48
2018-05-29T16:11:29.756Z,101329.48
2018-05-29T16:13:57.325Z,101326.61
2018-05-29T16:16:25.286Z,101332.47
2018-05-29T16:18:53.665Z,101333.12
2018-05-29T16:21:21.199Z,101336.82
2018-05-29T16:23:49.347Z,101334.91
2018-05-29T16:26:17.976Z,101331.89
2018-05-29T16:28:45.624Z,101335.92
2018-05-29T16:31:13.206Z,101331.14
2018-05-29T16:33:42.560Z,101331.18
2018-05-29T16:36:10.136Z,101333.80
2018-05-29T16:38:38.185Z,101338.36
2018-05-29T16:41:05.799Z,101329.13
2018-05-29T16:43:33.363Z,101330.95
2018-05-29T16:46:01.010Z,101327.12
2018-05-29T16:48:28.570Z,101326.25
2018-05-29T16:50:56.871Z,101323.88
2018-05-29T16:53:25.081Z,101317.05
2018-05-29T16:55:52.899Z,101323.05
2018-05-29T16:58:20.446Z,101319.34
2018-05-29T17:00:48.494Z,101320.13
2018-05-29T17:03:16.491Z,101316.43
2018-05-29T17:05:44.791Z,101315.48
2018-05-29T17:08:12.327Z,101308.47
2018-05-29T17:10:40.578Z,101308.40
2018-05-29T17:13:08.135Z,101314.09
2018-05-29T17:15:36.211Z,101309.97
2018-05-29T17:18:03.799Z,101313.36
2018-05-29T17:20:31.361Z,101314.23
2018-05-29T17:22:58.930Z,101313.89
2018-05-29T17:25:27.294Z,101313.61
2018-05-29T17:27:54.827Z,101313.48
2018-05-29T17:30:22.499Z,101314.02
2018-05-29T17:32:50.720Z,101315.46
2018-05-29T17:35:18.266Z,101316.78
2018-05-29T17:37:46.859Z,101312.47
2018-05-29T17:40:14.415Z,101316.27
2018-05-29T17:42:41.992Z,101318.53
2018-05-29T17:45:09.571Z,101315.25
2018-05-29T17:47:37.125Z,101315.89
2018-05-29T17:50:04.713Z,101319.34
2018-05-29T17:52:33.161Z,101319.61
2018-05-29T17:55:00.707Z,101314.99
2018-05-29T17:57:28.282Z,101314.81
2018-05-29T17:59:56.708Z,101310.47
2018-05-29T18:02:24.424Z,101320.56
2018-05-29T18:04:51.979Z,101312.08
2018-05-29T18:07:20.371Z,101310.86
2018-05-29T18:09:48.798Z,101315.50
2018-05-29T18:12:16.707Z,101317.07
2018-05-29T18:14:44.731Z,101317.00
2018-05-29T18:17:12.933Z,101318.52
2018-05-29T18:19:40.471Z,101319.86
2018-05-29T18:22:08.700Z,101319.32
2018-05-29T18:24:37.003Z,101319.37
2018-05-29T18:27:05.162Z,101320.22
2018-05-29T18:29:32.702Z,101318.12
2018-05-29T18:32:01.131Z,101314.94
2018-05-29T18:34:28.988Z,101313.06
2018-05-29T18:36:57.170Z,101324.98
2018-05-29T18:39:24.729Z,101320.83
2018-05-29T18:41:52.628Z,101322.70
2018-05-29T18:44:20.217Z,101323.78
2018-05-29T18:46:47.922Z,101326.58
2018-05-29T18:49:15.664Z,101326.27
2018-05-29T18:51:43.911Z,101328.77
2018-05-29T18:54:11.468Z,101331.58
2018-05-29T18:56:39.018Z,101333.92
2018-05-29T18:59:07.187Z,101343.20
2018-05-29T19:01:34.762Z,101349.91
2018-05-29T19:04:02.378Z,101344.48
2018-05-29T19:06:30.510Z,101345.12
2018-05-29T19:08:58.055Z,101343.91
2018-05-29T19:11:26.177Z,101347.80
2018-05-29T19:13:53.987Z,101347.20
2018-05-29T19:16:22.505Z,101348.19
2018-05-29T19:18:51.056Z,101351.66
2018-05-29T19:21:18.611Z,101350.41
2018-05-29T19:23:47.200Z,101354.50
2018-05-29T19:26:16.068Z,101354.63
2018-05-29T19:28:43.662Z,101363.19
2018-05-29T19:31:11.205Z,101359.84
2018-05-29T19:33:39.456Z,101361.95
2018-05-29T19:36:07.101Z,101365.97
2018-05-29T19:38:35.199Z,101367.25
2018-05-29T19:41:03.191Z,101367.52
2018-05-29T19:43:30.794Z,101365.91
2018-05-29T19:45:58.429Z,101371.41
2018-05-29T19:48:26.008Z,101368.66
2018-05-29T19:50:54.672Z,101375.25
2018-05-29T19:53:23.029Z,101377.98
2018-05-29T19:55:50.607Z,101379.47
2018-05-29T19:58:18.172Z,101382.34
2018-05-29T20:00:46.843Z,101383.97
2018-05-29T20:03:14.457Z,101387.91
2018-05-29T20:05:42.663Z,101387.58
2018-05-29T20:08:10.849Z,101389.89
2018-05-29T20:10:39.090Z,101390.38
2018-05-29T20:13:06.652Z,101389.65
2018-05-29T20:15:34.683Z,101392.19
2018-05-29T20:18:02.497Z,101389.97
2018-05-29T20:20:30.048Z,101390.36
2018-05-29T20:22:58.458Z,101389.87
2018-05-29T20:25:26.443Z,101387.34
2018-05-29T20:27:54.224Z,101387.44
2018-05-29T20:30:21.748Z,101386.94
2018-05-29T20:32:50.037Z,101381.09
2018-05-29T20:35:18.573Z,101382.27
2018-05-29T20:37:47.175Z,101389.84
2018-05-29T20:40:14.752Z,101394.53
2018-05-29T20:42:42.344Z,101391.28
2018-05-29T20:45:09.910Z,101392.55
2018-05-29T20:47:37.455Z,101397.76
2018-05-29T20:50:05.074Z,101406.52
2018-05-29T20:52:33.341Z,101406.41
2018-05-29T20:55:00.891Z,101401.77
2018-05-29T20:57:28.447Z,101401.66
2018-05-29T20:59:56.612Z,101405.19
2018-05-29T21:02:24.364Z,101409.70
2018-05-29T21:04:51.943Z,101408.96
2018-05-29T21:07:20.090Z,101413.75
2018-05-29T21:09:49.583Z,101413.54
2018-05-29T21:12:17.804Z,101408.79
2018-05-29T21:14:46.542Z,101414.67
2018-05-29T21:17:14.080Z,101414.45
2018-05-29T21:19:42.285Z,101414.24
2018-05-29T21:22:09.882Z,101417.64
2018-05-29T21:24:37.694Z,101414.13
2018-05-29T21:27:05.656Z,101414.62
2018-05-29T21:29:33.252Z,101419.52
2018-05-29T21:32:00.788Z,101422.63
2018-05-29T21:34:28.915Z,101422.09
2018-05-29T21:36:57.017Z,101424.55
2018-05-29T21:39:24.676Z,101422.11
2018-05-29T21:41:52.470Z,101420.06
2018-05-29T21:44:20.080Z,101421.30
2018-05-29T21:46:48.087Z,101418.30
2018-05-29T21:49:16.325Z,101418.81
2018-05-29T21:51:44.360Z,101415.38
2018-05-29T21:54:11.971Z,101420.09
2018-05-29T21:56:39.608Z,101424.91
2018-05-29T21:59:08.266Z,101421.88
2018-05-29T22:01:35.819Z,101418.86
2018-05-29T22:04:04.117Z,101421.02
2018-05-29T22:06:32.910Z,101419.89
2018-05-29T22:09:00.529Z,101415.42
2018-05-29T22:11:28.578Z,101416.66
2018-05-29T22:13:56.188Z,101413.61
2018-05-29T22:16:24.799Z,101413.33
2018-05-29T22:18:52.491Z,101412.67
2018-05-29T22:21:20.099Z,101411.19
2018-05-29T22:23:48.451Z,101412.69
2018-05-29T22:26:17.122Z,101418.83
2018-05-29T22:28:44.714Z,101422.50
2018-05-29T22:31:12.309Z,101422.30
2018-05-29T22:33:40.575Z,101427.02
2018-05-29T22:36:08.288Z,101427.83
2018-05-29T22:38:36.381Z,101426.66
2018-05-29T22:41:03.983Z,101422.34
2018-05-29T22:43:31.548Z,101422.95
2018-05-29T22:46:00.339Z,101420.66
2018-05-29T22:48:27.999Z,101419.05
2018-05-29T22:50:56.473Z,101419.47
2018-05-29T22:53:24.886Z,101417.13
2018-05-29T22:55:52.544Z,101413.41
2018-05-29T22:58:20.245Z,101417.21
2018-05-29T23:00:48.673Z,101419.36
2018-05-29T23:03:16.588Z,101420.48
2018-05-29T23:05:44.744Z,101423.84
2018-05-29T23:08:13.221Z,101421.39
2018-05-29T23:10:41.398Z,101425.15
2018-05-29T23:13:08.958Z,101420.21
2018-05-29T23:15:37.135Z,101426.23
2018-05-29T23:18:04.744Z,101426.59
2018-05-29T23:20:32.529Z,101425.23
2018-05-29T23:23:00.173Z,101426.53
2018-05-29T23:25:28.745Z,101426.59
2018-05-29T23:27:56.433Z,101437.66
2018-05-29T23:30:24.200Z,101429.13
2018-05-29T23:32:52.474Z,101433.80
2018-05-29T23:35:20.050Z,101428.52
2018-05-29T23:37:49.001Z,101436.17
2018-05-29T23:40:17.154Z,101438.10
2018-05-29T23:42:44.736Z,101437.72
2018-05-29T23:45:13.013Z,101433.16
2018-05-29T23:47:40.585Z,101433.03
2018-05-29T23:50:08.121Z,101433.06
2018-05-29T23:52:36.365Z,101437.17
2018-05-29T23:55:04.337Z,101436.08
2018-05-29T23:57:32.316Z,101433.75
